IGO144 VOBL-VOCI
Flight info
| Callsign | IGO144 |
|---|---|
| Flight time | N/A |
| Altitude | 28000 |
| Route | AKTIM7B AKTIM W118 CIA |
| Aircraft | A21N/M-SDE3FGHIRWY/LB1 |
Departure
| Time | 2026-05-05 18:15 |
|---|---|
| Airport | Kempegowda International Airport Bengaluru (VOBL) |
Arrival
| Time | N/A |
|---|---|
| Airport | Cochin International Airport (VOCI) |
| Time | Latitude | Longitude | Altitude | Speed | Heading |
|---|---|---|---|---|---|
| 2026-05-05 18:10 | 13.20244 | 77.70483 | 2981 ft | 5 kts | 270° |
| 2026-05-05 18:10 | 13.20248 | 77.70431 | 2982 ft | 10 kts | 287° |
| 2026-05-05 18:10 | 13.20332 | 77.70393 | 2983 ft | 17 kts | 358° |
| 2026-05-05 18:10 | 13.20468 | 77.70392 | 2986 ft | 17 kts | 1° |
| 2026-05-05 18:11 | 13.20528 | 77.70474 | 2985 ft | 17 kts | 87° |
| 2026-05-05 18:11 | 13.20528 | 77.70621 | 2980 ft | 23 kts | 91° |
| 2026-05-05 18:11 | 13.20524 | 77.70821 | 2968 ft | 31 kts | 90° |
| 2026-05-05 18:11 | 13.20525 | 77.71065 | 2953 ft | 35 kts | 91° |
| 2026-05-05 18:12 | 13.20522 | 77.71326 | 2944 ft | 35 kts | 90° |
| 2026-05-05 18:12 | 13.20519 | 77.71578 | 2941 ft | 34 kts | 91° |
| 2026-05-05 18:12 | 13.20518 | 77.71817 | 2941 ft | 32 kts | 90° |
| 2026-05-05 18:12 | 13.20515 | 77.72045 | 2941 ft | 30 kts | 91° |
| 2026-05-05 18:13 | 13.20518 | 77.72246 | 2940 ft | 24 kts | 71° |
| 2026-05-05 18:13 | 13.20625 | 77.72223 | 2938 ft | 16 kts | 327° |
| 2026-05-05 18:13 | 13.20681 | 77.72160 | 2938 ft | 11 kts | 283° |
| 2026-05-05 18:13 | 13.20690 | 77.72073 | 2938 ft | 12 kts | 267° |
| 2026-05-05 18:14 | 13.20687 | 77.71963 | 2938 ft | 29 kts | 269° |
| 2026-05-05 18:14 | 13.20688 | 77.71489 | 2935 ft | 101 kts | 270° |
| 2026-05-05 18:14 | 13.20671 | 77.70568 | 2981 ft | 155 kts | 268° |
| 2026-05-05 18:14 | 13.20657 | 77.69380 | 3352 ft | 172 kts | 270° |
| 2026-05-05 18:15 | 13.20810 | 77.68126 | 3888 ft | 180 kts | 289° |
| 2026-05-05 18:15 | 13.21439 | 77.67015 | 4523 ft | 179 kts | 308° |
| 2026-05-05 18:15 | 13.22226 | 77.65992 | 4865 ft | 188 kts | 304° |
| 2026-05-05 18:15 | 13.22972 | 77.64825 | 5142 ft | 202 kts | 301° |
| 2026-05-05 18:16 | 13.23737 | 77.63538 | 5457 ft | 215 kts | 300° |
| 2026-05-05 18:16 | 13.24529 | 77.62158 | 5672 ft | 235 kts | 300° |
| 2026-05-05 18:16 | 13.25376 | 77.60659 | 6006 ft | 252 kts | 300° |
| 2026-05-05 18:16 | 13.26287 | 77.59034 | 6340 ft | 270 kts | 300° |
| 2026-05-05 18:17 | 13.27229 | 77.57352 | 6880 ft | 278 kts | 300° |
| 2026-05-05 18:17 | 13.28197 | 77.55620 | 7603 ft | 280 kts | 300° |
| 2026-05-05 18:17 | 13.29067 | 77.53833 | 8291 ft | 283 kts | 287° |
| 2026-05-05 18:17 | 13.29248 | 77.51835 | 8948 ft | 288 kts | 262° |
| 2026-05-05 18:18 | 13.28548 | 77.49900 | 9591 ft | 294 kts | 237° |
| 2026-05-05 18:18 | 13.27066 | 77.48442 | 10212 ft | 301 kts | 213° |
| 2026-05-05 18:18 | 13.25210 | 77.47334 | 10656 ft | 313 kts | 210° |
| 2026-05-05 18:18 | 13.23210 | 77.46213 | 10952 ft | 330 kts | 209° |
| 2026-05-05 18:19 | 13.21132 | 77.45029 | 11291 ft | 344 kts | 210° |
| 2026-05-05 18:19 | 13.19041 | 77.43815 | 11859 ft | 349 kts | 208° |
| 2026-05-05 18:19 | 13.16785 | 77.42980 | 12463 ft | 353 kts | 187° |
| 2026-05-05 18:19 | 13.14334 | 77.43145 | 13078 ft | 354 kts | 162° |
| 2026-05-05 18:20 | 13.12152 | 77.44331 | 13679 ft | 354 kts | 138° |
| 2026-05-05 18:20 | 13.10597 | 77.46279 | 14287 ft | 354 kts | 120° |
| 2026-05-05 18:20 | 13.09359 | 77.48441 | 14912 ft | 355 kts | 118° |
| 2026-05-05 18:20 | 13.08134 | 77.50626 | 15490 ft | 358 kts | 118° |
| 2026-05-05 18:21 | 13.06830 | 77.52806 | 16072 ft | 362 kts | 122° |
| 2026-05-05 18:21 | 13.05359 | 77.54904 | 16655 ft | 365 kts | 126° |
| 2026-05-05 18:21 | 13.03799 | 77.56914 | 17219 ft | 368 kts | 127° |
| 2026-05-05 18:21 | 13.02197 | 77.58936 | 17771 ft | 370 kts | 127° |
| 2026-05-05 18:22 | 13.00601 | 77.60952 | 18306 ft | 373 kts | 127° |
| 2026-05-05 18:22 | 12.98973 | 77.63013 | 18838 ft | 375 kts | 127° |
| 2026-05-05 18:22 | 12.97339 | 77.65078 | 19354 ft | 378 kts | 129° |
| 2026-05-05 18:22 | 12.95345 | 77.66837 | 19825 ft | 385 kts | 148° |
| 2026-05-05 18:23 | 12.92874 | 77.67776 | 20302 ft | 391 kts | 169° |
| 2026-05-05 18:23 | 12.90149 | 77.67830 | 20784 ft | 396 kts | 183° |
| 2026-05-05 18:23 | 12.87454 | 77.67565 | 21225 ft | 399 kts | 185° |
| 2026-05-05 18:23 | 12.84717 | 77.67263 | 21639 ft | 402 kts | 185° |
| 2026-05-05 18:24 | 12.81939 | 77.66971 | 22070 ft | 405 kts | 184° |
| 2026-05-05 18:24 | 12.79131 | 77.66695 | 22499 ft | 407 kts | 184° |
| 2026-05-05 18:24 | 12.76324 | 77.66431 | 22911 ft | 409 kts | 183° |
| 2026-05-05 18:24 | 12.73496 | 77.66174 | 23315 ft | 412 kts | 183° |
| 2026-05-05 18:25 | 12.70631 | 77.65918 | 23718 ft | 414 kts | 183° |
| 2026-05-05 18:25 | 12.68747 | 77.65749 | 23977 ft | 415 kts | 183° |
| 2026-05-05 18:25 | 12.64904 | 77.65408 | 24487 ft | 418 kts | 183° |
| 2026-05-05 18:25 | 12.62041 | 77.65153 | 24855 ft | 421 kts | 183° |
| 2026-05-05 18:26 | 12.59113 | 77.64894 | 25224 ft | 423 kts | 183° |
| 2026-05-05 18:26 | 12.56198 | 77.64635 | 25578 ft | 425 kts | 183° |
| 2026-05-05 18:26 | 12.53268 | 77.64339 | 25925 ft | 427 kts | 185° |
| 2026-05-05 18:26 | 12.50343 | 77.63975 | 26266 ft | 429 kts | 185° |
| 2026-05-05 18:27 | 12.47364 | 77.63593 | 26602 ft | 431 kts | 185° |
| 2026-05-05 18:27 | 12.44416 | 77.63210 | 26954 ft | 432 kts | 185° |
| 2026-05-05 18:27 | 12.41438 | 77.62824 | 27348 ft | 432 kts | 185° |
| 2026-05-05 18:27 | 12.38471 | 77.62439 | 27701 ft | 433 kts | 185° |
| 2026-05-05 18:28 | 12.32712 | 77.61695 | 27990 ft | 436 kts | 185° |
| 2026-05-05 18:28 | 12.29735 | 77.61311 | 27997 ft | 436 kts | 185° |
| 2026-05-05 18:28 | 12.26740 | 77.60925 | 28000 ft | 436 kts | 185° |
| 2026-05-05 18:29 | 12.20769 | 77.60154 | 28002 ft | 436 kts | 185° |
| 2026-05-05 18:29 | 12.14776 | 77.59379 | 28002 ft | 436 kts | 185° |
| 2026-05-05 18:30 | 12.08746 | 77.58544 | 28001 ft | 437 kts | 189° |
| 2026-05-05 18:30 | 12.03002 | 77.56685 | 28003 ft | 438 kts | 203° |
| 2026-05-05 18:31 | 11.97570 | 77.53887 | 28003 ft | 437 kts | 206° |
| 2026-05-05 18:31 | 11.92179 | 77.51025 | 27998 ft | 437 kts | 206° |
| 2026-05-05 18:32 | 11.89492 | 77.49610 | 27993 ft | 437 kts | 205° |
| 2026-05-05 18:32 | 11.86802 | 77.48207 | 27988 ft | 437 kts | 205° |
| 2026-05-05 18:32 | 11.84082 | 77.46794 | 27981 ft | 437 kts | 205° |
| 2026-05-05 18:32 | 11.81375 | 77.45387 | 27974 ft | 437 kts | 205° |
| 2026-05-05 18:33 | 11.78633 | 77.43961 | 27967 ft | 437 kts | 205° |
| 2026-05-05 18:33 | 11.75905 | 77.42542 | 27962 ft | 437 kts | 205° |
| 2026-05-05 18:33 | 11.73186 | 77.41127 | 27958 ft | 437 kts | 205° |
| 2026-05-05 18:33 | 11.70489 | 77.39722 | 27955 ft | 438 kts | 205° |
| 2026-05-05 18:34 | 11.67772 | 77.38308 | 27953 ft | 438 kts | 205° |
| 2026-05-05 18:34 | 11.65078 | 77.36906 | 27952 ft | 438 kts | 205° |
| 2026-05-05 18:34 | 11.62367 | 77.35495 | 27951 ft | 438 kts | 205° |
| 2026-05-05 18:34 | 11.59668 | 77.34086 | 27949 ft | 438 kts | 205° |
| 2026-05-05 18:35 | 11.56956 | 77.32661 | 27949 ft | 438 kts | 205° |
| 2026-05-05 18:35 | 11.54240 | 77.31236 | 27949 ft | 437 kts | 205° |
| 2026-05-05 18:35 | 11.51546 | 77.29829 | 27949 ft | 437 kts | 205° |
| 2026-05-05 18:35 | 11.48880 | 77.28442 | 27949 ft | 437 kts | 205° |
| 2026-05-05 18:36 | 11.46175 | 77.27036 | 27949 ft | 437 kts | 205° |
| 2026-05-05 18:36 | 11.43457 | 77.25625 | 27949 ft | 437 kts | 205° |
| 2026-05-05 18:36 | 11.40756 | 77.24223 | 27949 ft | 437 kts | 205° |
| 2026-05-05 18:36 | 11.38041 | 77.22814 | 27949 ft | 437 kts | 205° |
| 2026-05-05 18:37 | 11.35323 | 77.21404 | 27949 ft | 437 kts | 205° |
| 2026-05-05 18:37 | 11.32601 | 77.19994 | 27949 ft | 437 kts | 205° |
| 2026-05-05 18:37 | 11.29933 | 77.18613 | 27949 ft | 437 kts | 205° |
| 2026-05-05 18:37 | 11.27229 | 77.17213 | 27949 ft | 437 kts | 205° |
| 2026-05-05 18:38 | 11.24529 | 77.15816 | 27948 ft | 437 kts | 205° |
| 2026-05-05 18:38 | 11.21821 | 77.14414 | 27796 ft | 432 kts | 205° |
| 2026-05-05 18:38 | 11.19174 | 77.13045 | 27261 ft | 431 kts | 205° |
| 2026-05-05 18:38 | 11.16520 | 77.11674 | 26653 ft | 430 kts | 205° |
| 2026-05-05 18:39 | 11.13866 | 77.10304 | 26099 ft | 429 kts | 205° |
| 2026-05-05 18:39 | 11.11196 | 77.08924 | 25455 ft | 429 kts | 205° |
| 2026-05-05 18:39 | 11.08560 | 77.07562 | 24875 ft | 427 kts | 205° |
| 2026-05-05 18:39 | 11.05923 | 77.06187 | 24400 ft | 423 kts | 207° |
| 2026-05-05 18:40 | 11.03421 | 77.04610 | 23893 ft | 420 kts | 214° |
| 2026-05-05 18:40 | 11.01177 | 77.02782 | 23323 ft | 420 kts | 221° |
| 2026-05-05 18:40 | 10.99013 | 77.00702 | 22415 ft | 427 kts | 224° |
| 2026-05-05 18:40 | 10.96906 | 76.98592 | 21703 ft | 428 kts | 225° |
| 2026-05-05 18:41 | 10.95494 | 76.97171 | 21356 ft | 425 kts | 225° |
| 2026-05-05 18:41 | 10.94774 | 76.96448 | 21193 ft | 423 kts | 226° |
| 2026-05-05 18:41 | 10.90648 | 76.92326 | 20266 ft | 412 kts | 226° |
| 2026-05-05 18:41 | 10.88632 | 76.90318 | 19839 ft | 405 kts | 223° |
| 2026-05-05 18:42 | 10.86613 | 76.88306 | 19375 ft | 398 kts | 223° |
| 2026-05-05 18:42 | 10.84635 | 76.86362 | 18913 ft | 392 kts | 223° |
| 2026-05-05 18:42 | 10.82705 | 76.84468 | 18466 ft | 386 kts | 223° |
| 2026-05-05 18:42 | 10.80780 | 76.82576 | 18000 ft | 381 kts | 223° |
| 2026-05-05 18:43 | 10.78877 | 76.80701 | 17458 ft | 378 kts | 223° |
| 2026-05-05 18:43 | 10.76991 | 76.78843 | 16895 ft | 376 kts | 223° |
| 2026-05-05 18:43 | 10.75095 | 76.76974 | 16345 ft | 374 kts | 223° |
| 2026-05-05 18:43 | 10.73233 | 76.75137 | 15814 ft | 371 kts | 223° |
| 2026-05-05 18:44 | 10.71406 | 76.73334 | 15288 ft | 369 kts | 223° |
| 2026-05-05 18:44 | 10.69574 | 76.71526 | 14757 ft | 366 kts | 224° |
| 2026-05-05 18:44 | 10.67781 | 76.69756 | 14233 ft | 364 kts | 224° |
| 2026-05-05 18:44 | 10.66574 | 76.68564 | 13880 ft | 362 kts | 224° |